x

Portland 12 Nm Southeast Of Portland,me (44007) Wave Buoy

12:50 - Thu 23rd Mar 2017 All times are EDT. -4 hours from GMT.

  • Sig Wave height 1.3ft
  • Swell Direction
  • Peak Period 11s
  • Average Period 3s
  • Wind
    16mph, 20mph gusts
  • Sea Temp 38°f
  • Air Temp 26°f
  • Sea Pressure 1029.5mb
  • Portland 12 Nm Southeast Of Portland,me
  • Portland 12 Nm Southeast Of Portland,me

More Historic Weather Station data

Upgrade to MSW Pro to gain access to the past 30 days of data for over 8000 Wavebouys and Weather Stations around the globe.

Join Pro

Comparision Forecast

View Surf forecast
   
jeu. 03/23 12:50 1.3ft 11s 3s 16 20 mph 1029.5mb 38f 26f
11:50 1.3ft 3s 3s 11 16 mph 1029.9mb 38f 24f
10:50 2ft 3s 3s 20 27 mph 1029.9mb 38f 22f
9:50 2ft 3s 3s 25 31 mph 1029.8mb 38f 21f
8:50 2ft 3s 3s 20 25 mph 1029.6mb 38f 19f
7:50 1.6ft 3s 3s 20 27 mph 1029.4mb 38f 18f
6:50 1.6ft 3s 3s 20 25 mph 1028.7mb 38f 18f
5:50 2.5ft 4s 3s 22 27 mph 1027.7mb 38f 18f
4:50 2.5ft 4s 3s 27 34 mph 1026.6mb 38f 19f
3:50 2.5ft 4s  -  27 34 mph 1026.2mb 37f 19f
2:50 2.5ft 3s 3s 27 34 mph 1025.8mb 37f 19f
1:50 2.5ft 3s 3s 27 36 mph 1025.3mb 37f 20f
12:50 2.5ft 3s 3s 34 43 mph 1024.5mb 37f 20f
mer. 03/22 11:50 3ft 4s 3s 29 36 mph 1023.9mb 37f 20f
10:50 2.5ft 4s 3s 27 34 mph 1023.1mb 38f 20f
9:50 3.5ft 4s 3s 29 36 mph 1022.2mb 38f 20f
8:50 3.5ft 4s 4s 34 40 mph 1021.1mb 38f 20f
7:50 3.5ft 4s 4s 31 40 mph 1019.6mb 38f 21f
6:50 3.5ft 4s 4s 31 40 mph 1017.9mb 38f 21f
5:50 4.5ft 4s 4s 34 40 mph 1016.5mb 38f 22f
4:50 4.5ft 4s 4s 34 40 mph 1014.9mb 38f 24f
3:50 4.5ft 4s 4s 31 40 mph 1014mb 38f 24f
2:50 3.5ft 4s 4s 29 36 mph 1012.7mb 38f 26f
1:50 3.5ft 11s 4s 29 38 mph 1012mb 38f 27f
12:50 3.5ft 4s 4s 27 36 mph 1011.1mb 38f 28f
11:50 3.5ft 12s 4s 25 31 mph 1010mb 38f 28f
10:50 3.5ft 12s 4s 22 27 mph 1009.4mb 38f 29f
9:50 3.5ft 11s 4s 22 29 mph 1007.9mb 38f 32f
8:50 3ft 11s 4s 20 27 mph 1006.6mb 38f 34f
7:50 2.5ft 12s 5s 22 27 mph 1005mb 38f 36f
6:50 2.5ft 11s 6s 16 18 mph 1004.5mb 38f 37f
5:50 2.5ft 11s 7s 11 13 mph 1004.7mb 38f 38f
4:50 2.5ft 11s 7s 7 9 mph 1005.1mb 38f 38f
3:50 2.5ft 12s 7s 7 9 mph 1005.7mb 38f 38f
2:50 3ft 11s 8s 4
mph
1006.6mb 38f 38f
1:50 3.5ft 11s 8s 4 7 mph 1007.2mb 38f 38f
12:50 3ft 11s 7s 4 7 mph 1007.4mb 38f 38f
mar. 03/21 11:50 3.5ft 11s 7s 4 7 mph 1007.9mb 38f 38f
10:50 3ft 11s 6s 11
mph
1008.1mb 38f 39f
9:50 3.5ft 10s 6s 11 13 mph 1007.9mb 38f 40f
8:50 2.5ft 10s 6s 9 11 mph 1008mb 39f 40f
7:50 3.5ft 11s 7s 9 11 mph 1007.7mb 39f 40f
6:50 3ft 11s 7s 9 11 mph 1007.5mb 39f 40f
5:50 3ft 11s 7s 11
mph
1007.7mb 39f 41f
4:50 3.5ft 11s 8s 11 13 mph 1008.1mb 39f 41f
3:50 3.5ft 10s 8s 7
mph
1008.4mb 39f 41f
2:50 4ft 10s 8s 9
mph
1008.8mb 39f 41f
1:50 4.5ft 10s 8s 7 9 mph 1009.7mb 39f 41f
12:50 4.5ft 10s 8s 7
mph
1010.4mb 39f 40f
11:50 4.5ft 10s 8s 4 7 mph 1011mb 38f 39f
10:50 4ft 10s 8s 4 7 mph 1011.4mb 38f 39f
9:50 4ft 10s 8s 7 9 mph 1011.4mb 38f 38f
8:50 4.5ft 10s 8s 4 7 mph 1011.5mb 38f 38f
7:50 4.5ft 10s 8s 4 7 mph 1010.7mb 38f 38f
6:50 4.5ft 10s 8s 7 9 mph 1010.7mb 38f 37f
5:50 5ft 10s 8s 4 7 mph 1010.7mb 38f 38f
4:50 5ft 10s 8s 9 11 mph 1010.7mb 38f 39f
3:50 4.5ft 9s 8s 9 11 mph 1010.7mb 38f 39f
2:50 5.5ft 10s 8s 4 9 mph 1011.3mb 38f 39f
1:50 5.5ft 10s 8s 9 11 mph 1011.9mb 38f 39f
12:50 6ft 10s 8s 11 13 mph 1012.1mb 38f 40f
lun. 03/20 11:50 6ft 10s 8s 9 11 mph 1012.5mb 38f 40f
10:50 5.5ft 10s 8s 9 11 mph 1012.6mb 38f 42f
9:50 6ft 10s 8s 4 7 mph 1013.1mb 38f 40f
8:50 7ft 10s 8s 7
mph
1013.1mb 39f 44f
7:50 5.5ft 9s 7s 7
mph
1013.4mb 39f 42f
6:50 6.5ft 10s 8s 2 4 mph 1013.3mb 39f 41f
5:50 6ft 11s 8s 7
mph
1013.2mb 39f 44f
4:50 6.5ft 11s 8s 11 13 mph 1013.2mb 39f 44f
3:50 7ft 11s 8s 7 9 mph 1013.8mb 39f 43f
2:50 7ft 11s 8s 9
mph
1014.4mb 39f 42f
1:50 8ft 11s 8s 9 11 mph 1015.4mb 38f 41f
12:50 8.5ft 11s 7s 13 16 mph 1016.2mb 38f 40f
11:50 10ft 10s 8s 16 20 mph 1017.1mb 38f 39f
10:50 10ft 11s 8s 20 22 mph 1017.6mb 38f 38f
9:50 9ft 11s 7s 22 27 mph 1017.5mb 38f 37f
8:50 8.5ft 11s 7s 22 27 mph 1017.7mb 38f 35f
7:50 9ft 11s 7s 25 29 mph 1017.3mb 38f 35f
6:50 8.5ft 10s 7s 25 31 mph 1017.1mb 38f 35f
5:50 9ft 10s 7s 25 29 mph 1017.1mb 38f 36f
4:50 9ft 9s 7s 22 27 mph 1016.8mb 38f 36f
3:50 9ft 10s 7s 22 29 mph 1016.7mb 38f 36f
2:50 8.5ft 10s 7s 20 25 mph 1017.4mb 38f 35f
1:50 9ft 11s 7s 22 27 mph 1017.9mb 38f 36f
12:50 9ft 10s 7s 20 22 mph 1018.5mb 38f 36f
dim. 03/19 11:50 8ft 9s 7s 20 25 mph 1018.8mb 38f 37f
10:50 7.5ft 9s 7s 18 22 mph 1019.4mb 38f 37f
9:50 6.5ft 8s 6s 18 20 mph 1020.2mb 38f 38f
8:50 6.5ft 8s 6s 11 18 mph 1020.9mb 38f 38f
7:50 6ft 8s 6s 9 11 mph 1021.1mb 38f 37f
6:50 6.5ft 8s 6s 13 16 mph 1020.9mb 38f 37f